createdAt,value
2019-06-07T00:02:50.129Z,16.00
2019-06-07T00:08:07.011Z,12.40
2019-06-07T00:13:01.498Z,13.22
2019-06-07T00:18:05.366Z,12.50
2019-06-07T00:23:11.380Z,14.03
2019-06-07T00:28:17.390Z,16.83
2019-06-07T00:38:24.779Z,17.17
2019-06-07T00:43:28.710Z,12.43
2019-06-07T00:48:33.145Z,14.63
2019-06-07T00:53:36.796Z,13.30
2019-06-07T00:58:40.397Z,15.30
2019-06-07T01:03:44.526Z,14.38
2019-06-07T01:08:48.418Z,14.23
2019-06-07T01:13:51.742Z,13.50
2019-06-07T01:18:55.889Z,14.05
2019-06-07T01:24:11.991Z,13.83
2019-06-07T01:29:10.052Z,16.67
2019-06-07T01:34:13.344Z,13.48
2019-06-07T01:39:18.822Z,14.15
2019-06-07T01:44:26.028Z,21.35
2019-06-07T01:49:29.763Z,14.95
2019-06-07T01:54:57.386Z,15.30
2019-06-07T01:59:38.718Z,16.60
2019-06-07T02:04:42.009Z,17.02
2019-06-07T02:09:45.319Z,15.63
2019-06-07T02:14:48.637Z,18.92
2019-06-07T02:19:52.053Z,16.67
2019-06-07T02:25:34.411Z,17.52
2019-06-07T02:30:35.185Z,17.45
2019-06-07T02:35:08.926Z,16.35
2019-06-07T02:40:15.055Z,20.50
2019-06-07T02:50:23.112Z,19.80
2019-06-07T02:55:29.566Z,17.05
2019-06-07T03:01:05.648Z,21.10
2019-06-07T03:05:49.390Z,16.67
2019-06-07T03:10:53.054Z,17.05
2019-06-07T03:15:58.273Z,18.37
2019-06-07T03:21:05.645Z,17.60
2019-06-07T03:26:09.830Z,16.60
2019-06-07T03:31:13.510Z,16.48
2019-06-07T03:36:23.961Z,15.48
2019-06-07T03:41:22.574Z,19.80
2019-06-07T03:46:27.326Z,17.85
2019-06-07T03:51:32.901Z,16.17
2019-06-07T03:56:38.618Z,15.67
2019-06-07T04:01:41.860Z,18.75
2019-06-07T04:06:45.198Z,17.17
2019-06-07T04:11:48.526Z,17.98
2019-06-07T04:16:52.549Z,15.55
2019-06-07T04:21:56.060Z,15.10
2019-06-07T04:26:59.429Z,19.62
2019-06-07T04:32:04.432Z,16.55
2019-06-07T04:37:10.119Z,18.33
2019-06-07T04:42:17.637Z,23.12
2019-06-07T04:47:24.854Z,19.75
2019-06-07T04:52:29.955Z,19.95
2019-06-07T04:57:35.434Z,15.43
2019-06-07T05:02:40.882Z,18.37
2019-06-07T05:07:46.205Z,15.98
2019-06-07T05:12:50.807Z,14.73
2019-06-07T05:17:54.337Z,20.00
2019-06-07T05:22:57.770Z,15.58
2019-06-07T05:28:01.247Z,22.15
2019-06-07T05:33:06.316Z,18.25
2019-06-07T05:38:09.759Z,17.77
2019-06-07T05:43:28.729Z,18.10
2019-06-07T05:48:32.170Z,18.95
2019-06-07T05:53:38.499Z,18.35
2019-06-07T06:03:48.278Z,22.15
2019-06-07T06:14:06.567Z,22.90
2019-06-07T06:18:59.710Z,17.95
2019-06-07T06:24:03.017Z,15.50
2019-06-07T06:29:06.314Z,25.60
2019-06-07T06:34:09.639Z,18.82
2019-06-07T06:39:13.387Z,19.02
2019-06-07T06:44:17.881Z,21.68
2019-06-07T06:49:21.439Z,22.22
2019-06-07T06:54:40.079Z,18.80
2019-06-07T06:59:39.053Z,23.85
2019-06-07T07:04:37.819Z,22.17
2019-06-07T07:09:43.838Z,25.10
2019-06-07T07:14:49.486Z,23.57
2019-06-07T07:19:55.397Z,20.43
2019-06-07T07:24:57.790Z,24.18
2019-06-07T07:30:34.641Z,24.87
2019-06-07T07:40:55.753Z,24.43
2019-06-07T07:45:19.537Z,31.25
2019-06-07T07:50:22.980Z,27.20
2019-06-07T07:55:27.966Z,30.43
2019-06-07T08:00:52.368Z,36.28
2019-06-07T08:05:42.888Z,32.78
2019-06-07T08:10:48.034Z,26.95
2019-06-07T08:15:54.432Z,28.45
2019-06-07T08:21:17.235Z,28.27
2019-06-07T08:26:01.448Z,33.08
2019-06-07T08:31:07.382Z,36.75
2019-06-07T08:41:15.103Z,35.48
2019-06-07T08:46:18.857Z,30.68
2019-06-07T08:51:23.522Z,29.57
2019-06-07T08:56:28.127Z,27.93
2019-06-07T09:01:31.717Z,38.85
2019-06-07T09:11:40.333Z,32.55
2019-06-07T09:16:43.790Z,32.60
2019-06-07T09:21:47.571Z,34.35
2019-06-07T09:26:50.888Z,29.70
2019-06-07T09:31:55.932Z,26.95
2019-06-07T09:37:04.291Z,28.17
2019-06-07T09:42:09.962Z,29.72
2019-06-07T09:47:30.691Z,27.67
2019-06-07T09:52:17.608Z,29.72
2019-06-07T09:57:21.299Z,26.07
2019-06-07T10:02:25.809Z,25.30
2019-06-07T10:07:32.007Z,32.00
2019-06-07T10:12:34.663Z,32.45
2019-06-07T10:17:37.981Z,19.20
2019-06-07T10:22:41.690Z,20.57
2019-06-07T10:27:45.107Z,15.33
2019-06-07T10:32:52.131Z,14.50
2019-06-07T10:37:58.142Z,19.48
2019-06-07T10:43:01.293Z,15.08
2019-06-07T10:48:05.677Z,15.83
2019-06-07T10:53:10.740Z,23.38
2019-06-07T10:58:14.325Z,21.42
2019-06-07T11:03:18.370Z,21.77
2019-06-07T11:08:21.869Z,20.60
2019-06-07T11:13:25.601Z,21.48
2019-06-07T11:18:31.103Z,14.50
2019-06-07T11:23:34.733Z,16.32
2019-06-07T11:28:38.389Z,14.00
2019-06-07T11:33:41.688Z,12.45
2019-06-07T11:38:45.000Z,15.70
2019-06-07T11:43:48.319Z,15.93
2019-06-07T11:48:51.595Z,15.53
2019-06-07T11:53:55.581Z,13.43
2019-06-07T11:58:58.878Z,12.63
2019-06-07T12:04:02.793Z,14.00
2019-06-07T12:09:08.422Z,14.90
2019-06-07T12:14:12.888Z,15.20
2019-06-07T12:19:19.809Z,13.20
2019-06-07T12:24:23.618Z,13.72
2019-06-07T12:29:29.485Z,12.50
2019-06-07T12:34:36.011Z,12.50
2019-06-07T12:39:39.332Z,15.10
2019-06-07T12:44:42.656Z,13.85
2019-06-07T12:49:46.151Z,20.17
2019-06-07T12:54:50.713Z,16.52
2019-06-07T13:04:57.341Z,17.23
2019-06-07T13:10:01.545Z,14.40
2019-06-07T13:15:06.226Z,13.58
2019-06-07T13:20:11.850Z,13.98
2019-06-07T13:25:16.263Z,12.78
2019-06-07T13:35:25.483Z,13.58
2019-06-07T13:40:28.890Z,10.88
2019-06-07T13:45:32.206Z,14.33
2019-06-07T13:50:35.515Z,15.50
2019-06-07T13:55:39.601Z,13.08
2019-06-07T14:00:43.800Z,14.87
2019-06-07T14:05:48.164Z,14.33
2019-06-07T14:10:51.863Z,17.90
2019-06-07T14:15:55.945Z,16.77
2019-06-07T14:20:59.731Z,12.03
2019-06-07T14:26:03.614Z,14.58
2019-06-07T14:31:07.246Z,12.23
2019-06-07T14:36:10.629Z,7.92
2019-06-07T14:41:14.771Z,7.17
2019-06-07T14:46:18.047Z,6.78
2019-06-07T14:51:22.007Z,9.83
2019-06-07T14:56:27.032Z,6.03
2019-06-07T15:01:30.787Z,7.55
2019-06-07T15:06:34.964Z,6.47
2019-06-07T15:11:39.231Z,9.25
2019-06-07T15:16:43.709Z,10.45
2019-06-07T15:21:48.441Z,5.83
2019-06-07T15:26:51.842Z,4.62
2019-06-07T15:31:55.893Z,4.92
2019-06-07T15:36:59.830Z,6.75
2019-06-07T15:42:03.489Z,6.08
2019-06-07T15:47:07.462Z,4.50
2019-06-07T15:52:10.814Z,7.58
2019-06-07T15:57:14.101Z,5.90
2019-06-07T16:02:17.857Z,4.85
2019-06-07T16:07:21.535Z,4.60
2019-06-07T16:12:25.516Z,5.95
2019-06-07T16:17:29.661Z,7.50
2019-06-07T16:22:33.648Z,5.05
2019-06-07T16:27:38.375Z,8.80
2019-06-07T16:32:43.927Z,5.70
2019-06-07T16:37:51.608Z,6.67
2019-06-07T16:42:53.284Z,7.45
2019-06-07T16:47:56.800Z,6.10
2019-06-07T16:53:00.561Z,5.53
2019-06-07T16:58:04.823Z,6.17
2019-06-07T17:03:08.156Z,7.10
2019-06-07T17:13:34.115Z,6.05
2019-06-07T17:18:38.892Z,5.62
2019-06-07T17:23:43.786Z,6.33
2019-06-07T17:28:47.783Z,7.80
2019-06-07T17:33:52.397Z,8.18
2019-06-07T17:38:56.079Z,8.15
2019-06-07T17:44:00.491Z,8.40
2019-06-07T17:49:04.461Z,10.03
2019-06-07T17:54:08.226Z,11.57
2019-06-07T17:59:11.653Z,19.10
2019-06-07T18:04:15.188Z,12.03
2019-06-07T18:09:19.054Z,15.77
2019-06-07T18:14:22.838Z,18.42
2019-06-07T18:19:26.143Z,13.85
2019-06-07T18:24:30.232Z,13.85
2019-06-07T18:29:33.598Z,15.68
2019-06-07T18:34:37.495Z,16.23
2019-06-07T18:39:41.462Z,19.27
2019-06-07T18:44:45.044Z,16.87
2019-06-07T18:49:49.557Z,20.45
2019-06-07T18:54:55.038Z,22.98
2019-06-07T18:59:59.498Z,21.15
2019-06-07T19:05:03.033Z,22.82
2019-06-07T19:10:07.242Z,26.90
2019-06-07T19:15:12.166Z,22.70
2019-06-07T19:20:16.869Z,19.60
2019-06-07T19:25:20.823Z,25.23
2019-06-07T19:30:24.135Z,25.05
2019-06-07T19:35:27.740Z,29.67
2019-06-07T19:40:31.133Z,29.02
2019-06-07T19:45:34.891Z,29.55
2019-06-07T19:50:38.452Z,28.57
2019-06-07T19:55:41.936Z,31.30
2019-06-07T20:00:45.788Z,27.05
2019-06-07T20:05:50.353Z,30.57
2019-06-07T20:10:54.465Z,35.52
2019-06-07T20:16:00.819Z,38.05
2019-06-07T20:21:04.968Z,36.50
2019-06-07T20:26:08.895Z,41.80
2019-06-07T20:31:13.268Z,33.58
2019-06-07T20:36:16.707Z,38.53
2019-06-07T20:41:19.997Z,39.35
2019-06-07T20:46:23.671Z,39.90
2019-06-07T20:51:27.418Z,39.80
2019-06-07T20:56:30.882Z,32.05
2019-06-07T21:01:34.925Z,44.60
2019-06-07T21:06:38.281Z,40.83
2019-06-07T21:11:41.636Z,42.10
2019-06-07T21:16:44.970Z,40.15
2019-06-07T21:21:48.329Z,34.20
2019-06-07T21:26:53.544Z,38.17
2019-06-07T21:31:57.129Z,47.87
2019-06-07T21:37:01.711Z,37.73
2019-06-07T21:42:06.058Z,37.70
2019-06-07T21:47:10.595Z,38.10
2019-06-07T21:52:15.457Z,36.15
2019-06-07T21:57:18.892Z,34.67
2019-06-07T22:02:22.321Z,40.03
2019-06-07T22:07:25.678Z,37.30
2019-06-07T22:12:29.108Z,41.25
2019-06-07T22:17:32.788Z,37.08
2019-06-07T22:22:36.165Z,42.05
2019-06-07T22:27:39.455Z,35.55
2019-06-07T22:32:42.781Z,39.75
2019-06-07T22:37:46.446Z,36.95
2019-06-07T22:42:49.812Z,43.52
2019-06-07T22:47:53.358Z,39.98
2019-06-07T22:52:56.663Z,39.83
2019-06-07T22:58:00.737Z,43.63
2019-06-07T23:03:04.630Z,43.48
2019-06-07T23:08:08.981Z,35.73
2019-06-07T23:13:13.547Z,40.23
2019-06-07T23:18:17.713Z,36.55
2019-06-07T23:23:21.984Z,36.00
2019-06-07T23:28:25.507Z,36.80
2019-06-07T23:33:29.540Z,36.53
2019-06-07T23:38:33.226Z,36.08
2019-06-07T23:43:37.087Z,47.33
2019-06-07T23:48:40.474Z,47.40
2019-06-07T23:53:45.642Z,36.88
2019-06-07T23:58:49.006Z,38.33
